createdAt,value
2023-01-21T00:01:54.975Z,3.60
2023-01-21T00:04:29.131Z,3.40
2023-01-21T00:06:57.139Z,3.40
2023-01-21T00:09:30.264Z,3.70
2023-01-21T00:12:03.315Z,3.70
2023-01-21T00:14:31.193Z,3.40
2023-01-21T00:16:59.727Z,3.50
2023-01-21T00:19:28.355Z,3.70
2023-01-21T00:21:56.224Z,3.60
2023-01-21T00:24:33.092Z,3.50
2023-01-21T00:27:02.332Z,4.00
2023-01-21T00:29:30.229Z,4.20
2023-01-21T00:32:13.513Z,3.90
2023-01-21T00:34:50.542Z,3.70
2023-01-21T00:37:18.510Z,4.00
2023-01-21T00:39:52.260Z,3.90
2023-01-21T00:42:21.824Z,3.70
2023-01-21T00:44:52.176Z,3.70
2023-01-21T00:47:29.071Z,4.00
2023-01-21T00:50:00.104Z,3.80
2023-01-21T00:52:27.983Z,3.60
2023-01-21T00:55:05.917Z,3.70
2023-01-21T00:57:35.409Z,3.80
2023-01-21T01:00:11.106Z,3.50
2023-01-21T01:02:52.964Z,3.40
2023-01-21T01:05:28.403Z,3.60
2023-01-21T01:08:11.086Z,3.70
2023-01-21T01:10:39.068Z,3.40
2023-01-21T01:13:10.926Z,3.60
2023-01-21T01:15:43.853Z,3.70
2023-01-21T01:18:17.860Z,3.40
2023-01-21T01:20:48.830Z,3.20
2023-01-21T01:23:24.170Z,3.40
2023-01-21T01:29:04.541Z,3.00
2023-01-21T01:31:44.719Z,3.20
2023-01-21T01:34:14.995Z,3.30
2023-01-21T01:36:47.588Z,3.00
2023-01-21T01:39:21.337Z,3.00
2023-01-21T01:42:02.721Z,3.30
2023-01-21T01:45:12.755Z,3.40
2023-01-21T01:50:40.009Z,3.50
2023-01-21T01:53:11.269Z,3.40
2023-01-21T01:55:40.648Z,3.20
2023-01-21T01:58:16.179Z,3.40
2023-01-21T02:00:47.765Z,3.80
2023-01-21T02:03:39.030Z,3.90
2023-01-21T02:06:09.781Z,3.80
2023-01-21T02:08:40.831Z,4.00
2023-01-21T02:11:17.607Z,4.10
2023-01-21T02:13:47.936Z,3.70
2023-01-21T02:17:01.821Z,4.20
2023-01-21T02:20:08.691Z,4.80
2023-01-21T02:22:56.232Z,4.50
2023-01-21T02:29:34.993Z,5.40
2023-01-21T02:32:29.139Z,4.70
2023-01-21T02:35:06.441Z,4.80
2023-01-21T02:37:41.007Z,4.90
2023-01-21T02:40:26.479Z,4.30
2023-01-21T02:43:06.130Z,4.40
2023-01-21T02:45:56.593Z,4.70
2023-01-21T02:48:32.521Z,4.20
2023-01-21T02:51:09.296Z,3.80
2023-01-21T02:53:37.548Z,3.80
2023-01-21T02:56:12.347Z,3.70
2023-01-21T02:58:48.513Z,3.20
2023-01-21T03:01:34.985Z,3.50
2023-01-21T03:04:26.177Z,4.10
2023-01-21T03:07:16.365Z,3.70
2023-01-21T03:09:57.664Z,3.70
2023-01-21T03:12:35.885Z,3.90
2023-01-21T03:15:26.787Z,3.60
2023-01-21T03:18:10.061Z,3.70
2023-01-21T03:20:58.090Z,4.20
2023-01-21T03:23:33.540Z,4.10
2023-01-21T03:26:02.576Z,3.90
2023-01-21T03:28:33.763Z,4.10
2023-01-21T03:31:13.363Z,4.10
2023-01-21T03:33:48.175Z,3.80
2023-01-21T03:36:36.371Z,4.00
2023-01-21T03:39:32.413Z,4.30
2023-01-21T03:42:03.963Z,3.90
2023-01-21T03:44:37.490Z,4.10
2023-01-21T03:47:21.588Z,4.20
2023-01-21T03:50:04.941Z,3.90
2023-01-21T03:52:46.015Z,3.80
2023-01-21T03:55:18.338Z,4.00
2023-01-21T03:57:53.611Z,4.00
2023-01-21T04:00:21.804Z,4.00
2023-01-21T04:03:05.749Z,4.30
2023-01-21T04:05:42.872Z,4.20
2023-01-21T04:08:10.833Z,3.60
2023-01-21T04:10:40.080Z,3.70
2023-01-21T04:13:13.816Z,3.90
2023-01-21T04:15:44.600Z,3.50
2023-01-21T04:18:12.470Z,3.70
2023-01-21T04:20:55.186Z,3.70
2023-01-21T04:23:29.244Z,3.20
2023-01-21T04:26:01.331Z,3.00
2023-01-21T04:28:29.169Z,3.40
2023-01-21T04:30:59.534Z,4.00
2023-01-21T04:33:30.705Z,4.10
2023-01-21T04:35:59.640Z,4.10
2023-01-21T04:38:42.850Z,4.20
2023-01-21T04:41:15.080Z,3.70
2023-01-21T04:43:54.990Z,3.70
2023-01-21T04:46:34.512Z,3.90
2023-01-21T04:49:02.416Z,3.50
2023-01-21T04:51:30.372Z,3.10
2023-01-21T04:54:04.228Z,3.30
2023-01-21T04:56:33.486Z,3.30
2023-01-21T04:59:37.817Z,2.90
2023-01-21T05:02:05.717Z,2.80
2023-01-21T05:04:36.392Z,3.10
2023-01-21T05:07:07.153Z,2.80
2023-01-21T05:09:38.181Z,2.80
2023-01-21T05:12:08.507Z,3.10
2023-01-21T05:14:40.801Z,3.00
2023-01-21T05:17:08.677Z,3.00
2023-01-21T05:19:39.352Z,3.30
2023-01-21T05:22:07.232Z,3.60
2023-01-21T05:24:47.160Z,4.10
2023-01-21T05:27:16.994Z,3.90
2023-01-21T05:29:54.065Z,4.20
2023-01-21T05:32:24.684Z,4.60
2023-01-21T05:34:58.821Z,4.30
2023-01-21T05:37:32.412Z,4.00
2023-01-21T05:40:16.832Z,4.00
2023-01-21T05:42:49.120Z,4.30
2023-01-21T05:45:22.403Z,3.80
2023-01-21T05:48:04.180Z,4.10
2023-01-21T05:50:39.362Z,4.50
2023-01-21T05:53:13.473Z,4.30
2023-01-21T05:55:51.182Z,4.00
2023-01-21T05:58:20.633Z,4.30
2023-01-21T06:00:57.483Z,4.50
2023-01-21T06:03:31.482Z,3.90
2023-01-21T06:06:11.848Z,4.10
2023-01-21T06:08:45.903Z,4.10
2023-01-21T06:11:18.865Z,4.00
2023-01-21T06:13:50.593Z,3.50
2023-01-21T06:16:30.558Z,3.00
2023-01-21T06:18:58.427Z,3.00
2023-01-21T06:21:26.372Z,2.70
2023-01-21T06:24:06.577Z,2.40
2023-01-21T06:26:43.304Z,2.30
2023-01-21T06:29:32.334Z,2.10
2023-01-21T06:32:06.878Z,1.70
2023-01-21T06:34:37.680Z,1.50
2023-01-21T06:37:14.618Z,1.30
2023-01-21T06:39:45.499Z,1.20
2023-01-21T06:42:17.815Z,1.30
2023-01-21T06:44:49.512Z,1.60
2023-01-21T06:47:26.368Z,1.90
2023-01-21T06:49:54.335Z,1.90
2023-01-21T06:52:22.488Z,1.60
2023-01-21T06:57:43.821Z,1.00
2023-01-21T07:00:15.008Z,0.90
2023-01-21T07:02:43.186Z,1.40
2023-01-21T07:05:14.937Z,2.00
2023-01-21T07:07:46.096Z,2.20
2023-01-21T07:10:14.183Z,2.30
2023-01-21T07:12:47.690Z,2.60
2023-01-21T07:15:22.937Z,2.40
2023-01-21T07:18:04.719Z,2.30
2023-01-21T07:20:40.790Z,2.30
2023-01-21T07:23:11.675Z,2.20
2023-01-21T07:25:44.721Z,2.00
2023-01-21T07:28:12.753Z,1.90
2023-01-21T07:30:47.380Z,1.70
2023-01-21T07:33:18.080Z,1.60
2023-01-21T07:35:45.941Z,1.60
2023-01-21T07:38:16.895Z,1.50
2023-01-21T07:40:44.840Z,1.70
2023-01-21T07:43:12.725Z,2.20
2023-01-21T07:45:40.639Z,2.40
2023-01-21T07:48:10.647Z,2.30
2023-01-21T07:50:38.533Z,3.00
2023-01-21T07:53:06.459Z,3.50
2023-01-21T07:55:34.378Z,3.60
2023-01-21T07:58:02.411Z,3.70
2023-01-21T08:00:30.321Z,4.10
2023-01-21T08:03:01.395Z,4.60
2023-01-21T08:05:30.655Z,4.80
2023-01-21T08:08:01.593Z,5.20
2023-01-21T08:10:32.442Z,5.60
2023-01-21T08:13:01.887Z,5.40
2023-01-21T08:15:32.900Z,5.10
2023-01-21T08:18:02.936Z,4.70
2023-01-21T08:20:35.275Z,4.80
2023-01-21T08:23:09.421Z,5.00
2023-01-21T08:25:37.366Z,5.00
2023-01-21T08:28:08.310Z,5.30
2023-01-21T08:30:36.200Z,5.30
2023-01-21T08:33:06.421Z,5.30
2023-01-21T08:35:38.665Z,5.40
2023-01-21T08:38:12.667Z,5.40
2023-01-21T08:40:40.545Z,5.30
2023-01-21T08:43:09.111Z,4.80
2023-01-21T08:45:37.084Z,4.10
2023-01-21T08:48:06.704Z,4.00
2023-01-21T08:50:34.577Z,3.80
2023-01-21T08:53:06.664Z,3.70
2023-01-21T08:55:49.677Z,3.80
2023-01-21T08:58:17.559Z,4.10
2023-01-21T09:00:45.470Z,4.30
2023-01-21T09:03:16.899Z,4.50
2023-01-21T09:06:02.001Z,4.60
2023-01-21T09:08:36.298Z,4.50
2023-01-21T09:11:06.826Z,4.50
2023-01-21T09:13:39.704Z,4.40
2023-01-21T09:16:09.208Z,4.50
2023-01-21T09:18:37.609Z,4.70
2023-01-21T09:21:06.956Z,4.90
2023-01-21T09:23:36.959Z,4.80
2023-01-21T09:26:07.259Z,4.60
2023-01-21T09:28:37.572Z,4.50
2023-01-21T09:31:15.309Z,4.10
2023-01-21T09:33:45.591Z,4.30
2023-01-21T09:36:21.824Z,4.50
2023-01-21T09:38:51.812Z,4.10
2023-01-21T09:41:31.324Z,3.90
2023-01-21T09:44:24.726Z,3.90
2023-01-21T09:46:58.367Z,4.00
2023-01-21T09:49:34.410Z,3.90
2023-01-21T09:52:07.965Z,3.80
2023-01-21T09:54:39.317Z,3.60
2023-01-21T09:57:37.048Z,3.60
2023-01-21T10:00:30.504Z,3.50
2023-01-21T10:03:05.237Z,3.30
2023-01-21T10:05:54.415Z,3.10
2023-01-21T10:08:27.922Z,3.30
2023-01-21T10:11:22.117Z,3.20
2023-01-21T10:14:10.767Z,3.20
2023-01-21T10:16:46.860Z,3.20
2023-01-21T10:19:21.760Z,3.40
2023-01-21T10:21:53.561Z,3.50
2023-01-21T10:24:39.916Z,3.50
2023-01-21T10:27:15.607Z,3.40
2023-01-21T10:29:44.427Z,3.50
2023-01-21T10:32:18.019Z,3.70
2023-01-21T10:34:51.736Z,3.50
2023-01-21T10:37:32.281Z,3.50
2023-01-21T10:40:09.002Z,3.60
2023-01-21T10:42:55.503Z,3.60
2023-01-21T10:45:57.860Z,3.40
2023-01-21T10:48:38.496Z,3.20
2023-01-21T10:51:18.760Z,3.50
2023-01-21T10:53:53.551Z,3.50
2023-01-21T10:56:35.084Z,3.40
2023-01-21T10:59:08.163Z,3.50
2023-01-21T11:01:40.607Z,4.00
2023-01-21T11:04:15.416Z,3.80
2023-01-21T11:06:48.916Z,3.60
2023-01-21T11:09:16.968Z,4.00
2023-01-21T11:11:46.352Z,4.30
2023-01-21T11:14:21.155Z,3.90
2023-01-21T11:16:53.030Z,3.60
2023-01-21T11:19:25.881Z,3.50
2023-01-21T11:22:07.488Z,3.60
2023-01-21T11:24:44.414Z,3.50
2023-01-21T11:27:20.764Z,3.50
2023-01-21T11:29:52.879Z,3.20
2023-01-21T11:32:22.747Z,3.40
2023-01-21T11:35:02.025Z,3.50
2023-01-21T11:37:31.553Z,3.30
2023-01-21T11:40:15.110Z,3.40
2023-01-21T11:43:03.311Z,3.40
2023-01-21T11:45:37.093Z,3.40
2023-01-21T11:48:27.619Z,3.20
2023-01-21T11:54:16.137Z,3.20
2023-01-21T11:56:56.479Z,3.40
2023-01-21T11:59:34.262Z,3.20
2023-01-21T12:02:18.614Z,3.20
2023-01-21T12:04:50.403Z,3.40
2023-01-21T12:07:22.094Z,3.30
2023-01-21T12:10:08.848Z,3.20
2023-01-21T12:12:55.538Z,3.20
2023-01-21T12:16:06.036Z,3.40
2023-01-21T12:18:53.477Z,3.40
2023-01-21T12:21:27.949Z,3.30
2023-01-21T12:24:09.945Z,3.20
2023-01-21T12:26:48.425Z,3.30
2023-01-21T12:29:44.578Z,3.20
2023-01-21T12:32:34.981Z,3.10
2023-01-21T12:35:12.545Z,3.20
2023-01-21T12:37:46.835Z,3.40
2023-01-21T12:40:23.564Z,3.30
2023-01-21T12:42:57.155Z,3.20
2023-01-21T12:45:29.771Z,3.10
2023-01-21T12:48:01.338Z,3.20
2023-01-21T12:50:35.314Z,3.20
2023-01-21T12:53:16.194Z,3.10
2023-01-21T12:56:19.637Z,3.20
2023-01-21T12:58:53.520Z,3.10
2023-01-21T13:01:34.982Z,3.10
2023-01-21T13:04:14.792Z,3.10
2023-01-21T13:06:54.243Z,3.10
2023-01-21T13:09:35.932Z,3.30
2023-01-21T13:12:15.319Z,3.40
2023-01-21T13:14:48.447Z,3.60
2023-01-21T13:17:20.234Z,3.70
2023-01-21T13:19:51.342Z,3.70
2023-01-21T13:22:37.284Z,3.70
2023-01-21T13:28:16.208Z,3.30
2023-01-21T13:31:03.625Z,3.30
2023-01-21T13:33:47.292Z,3.20
2023-01-21T13:36:30.119Z,3.10
2023-01-21T13:39:04.573Z,3.00
2023-01-21T13:41:56.826Z,2.90
2023-01-21T13:44:56.374Z,2.90
2023-01-21T13:47:35.792Z,3.00
2023-01-21T13:50:36.753Z,3.10
2023-01-21T13:53:23.662Z,3.00
2023-01-21T13:56:03.834Z,3.00
2023-01-21T13:58:38.719Z,3.00
2023-01-21T14:01:13.467Z,2.90
2023-01-21T14:03:46.766Z,3.00
2023-01-21T14:06:24.495Z,3.00
2023-01-21T14:09:02.172Z,2.80
2023-01-21T14:11:37.471Z,2.80
2023-01-21T14:14:25.127Z,2.70
2023-01-21T14:17:13.199Z,2.70
2023-01-21T14:20:27.609Z,2.70
2023-01-21T14:23:26.042Z,2.80
2023-01-21T14:26:09.922Z,3.00
2023-01-21T14:28:55.937Z,3.00
2023-01-21T14:31:36.932Z,3.00
2023-01-21T14:34:17.132Z,3.10
2023-01-21T14:37:05.532Z,3.10
2023-01-21T14:39:44.719Z,3.20
2023-01-21T14:42:16.221Z,3.20
2023-01-21T14:45:07.952Z,3.20
2023-01-21T14:47:44.537Z,3.30
2023-01-21T14:50:46.857Z,3.20
2023-01-21T14:53:24.465Z,3.20
2023-01-21T14:56:10.608Z,3.20
2023-01-21T14:58:45.416Z,3.20
2023-01-21T15:01:36.065Z,3.10
2023-01-21T15:04:07.711Z,3.30
2023-01-21T15:06:43.263Z,3.30
2023-01-21T15:09:24.007Z,3.20
2023-01-21T15:11:56.279Z,2.90
2023-01-21T15:14:35.224Z,2.90
2023-01-21T15:17:27.420Z,3.20
2023-01-21T15:23:39.259Z,3.40
2023-01-21T15:26:41.588Z,3.30
2023-01-21T15:29:34.860Z,3.20
2023-01-21T15:32:39.625Z,3.20
2023-01-21T15:35:17.193Z,3.20
2023-01-21T15:37:51.518Z,3.50
2023-01-21T15:40:27.304Z,3.90
2023-01-21T15:43:15.642Z,3.70
2023-01-21T15:45:50.631Z,3.50
2023-01-21T15:48:57.136Z,3.60
2023-01-21T15:51:45.703Z,3.80
2023-01-21T15:54:44.367Z,3.70
2023-01-21T15:57:35.579Z,3.70
2023-01-21T16:00:33.299Z,3.70
2023-01-21T16:03:19.856Z,3.40
2023-01-21T16:05:58.447Z,3.40
2023-01-21T16:08:43.853Z,3.50
2023-01-21T16:11:48.679Z,3.50
2023-01-21T16:14:28.542Z,3.50
2023-01-21T16:17:08.133Z,3.60
2023-01-21T16:19:40.749Z,3.70
2023-01-21T16:22:16.004Z,3.70
2023-01-21T16:25:05.040Z,3.70
2023-01-21T16:27:41.313Z,3.70
2023-01-21T16:30:17.113Z,3.80
2023-01-21T16:32:44.975Z,3.90
2023-01-21T16:35:16.189Z,3.80
2023-01-21T16:37:44.965Z,4.00
2023-01-21T16:40:31.396Z,4.00
2023-01-21T16:43:18.567Z,4.00
2023-01-21T16:45:51.063Z,4.30
2023-01-21T16:48:27.708Z,5.00
2023-01-21T16:50:56.099Z,5.10
2023-01-21T16:53:27.549Z,4.90
2023-01-21T16:55:58.059Z,5.00
2023-01-21T16:58:29.553Z,5.10
2023-01-21T17:01:13.497Z,5.00
2023-01-21T17:03:48.197Z,4.90
2023-01-21T17:06:24.662Z,4.70
2023-01-21T17:09:01.756Z,4.80
2023-01-21T17:11:37.477Z,4.60
2023-01-21T17:14:10.804Z,4.70
2023-01-21T17:16:41.750Z,4.60
2023-01-21T17:19:25.065Z,4.50
2023-01-21T17:21:56.935Z,4.60
2023-01-21T17:24:28.617Z,4.80
2023-01-21T17:27:10.105Z,4.70
2023-01-21T17:29:38.667Z,4.70
2023-01-21T17:32:27.148Z,4.60
2023-01-21T17:35:33.738Z,4.40
2023-01-21T17:38:02.696Z,4.30
2023-01-21T17:40:42.380Z,4.30
2023-01-21T17:43:21.153Z,4.40
2023-01-21T17:46:11.749Z,4.20
2023-01-21T17:48:45.350Z,4.20
2023-01-21T17:51:16.922Z,4.40
2023-01-21T17:53:53.002Z,4.20
2023-01-21T17:57:07.157Z,4.20
2023-01-21T17:59:39.009Z,4.20
2023-01-21T18:02:12.266Z,4.10
2023-01-21T18:04:40.351Z,3.90
2023-01-21T18:10:15.906Z,4.00
2023-01-21T18:12:46.648Z,3.60
2023-01-21T18:15:18.297Z,3.50
2023-01-21T18:18:01.125Z,3.60
2023-01-21T18:20:39.964Z,3.80
2023-01-21T18:23:12.643Z,3.60
2023-01-21T18:25:41.011Z,3.70
2023-01-21T18:28:17.679Z,3.70
2023-01-21T18:30:55.193Z,3.80
2023-01-21T18:33:29.110Z,3.60
2023-01-21T18:35:57.036Z,3.60
2023-01-21T18:38:29.749Z,3.60
2023-01-21T18:41:05.726Z,3.60
2023-01-21T18:43:33.577Z,3.60
2023-01-21T18:46:12.088Z,3.80
2023-01-21T18:48:43.150Z,3.90
2023-01-21T18:51:11.199Z,3.80
2023-01-21T18:53:42.180Z,3.60
2023-01-21T18:56:14.049Z,3.70
2023-01-21T18:58:42.023Z,3.60
2023-01-21T19:01:22.645Z,3.40
2023-01-21T19:03:57.625Z,3.50
2023-01-21T19:06:26.660Z,3.40
2023-01-21T19:08:59.774Z,3.40
2023-01-21T19:11:38.761Z,3.40
2023-01-21T19:14:06.639Z,3.20
2023-01-21T19:16:39.758Z,3.20
2023-01-21T19:19:11.448Z,3.50
2023-01-21T19:21:39.500Z,3.80
2023-01-21T19:24:10.301Z,3.90
2023-01-21T19:26:39.737Z,3.80
2023-01-21T19:29:27.295Z,4.00
2023-01-21T19:32:01.839Z,4.10
2023-01-21T19:34:32.560Z,4.30
2023-01-21T19:37:03.504Z,4.10
2023-01-21T19:39:37.430Z,4.00
2023-01-21T19:42:08.783Z,3.90
2023-01-21T19:44:36.906Z,4.10
2023-01-21T19:47:25.416Z,4.00
2023-01-21T19:49:56.354Z,4.00
2023-01-21T19:52:24.854Z,4.20
2023-01-21T19:54:54.946Z,4.20
2023-01-21T19:57:23.194Z,4.20
2023-01-21T19:59:52.763Z,4.10
2023-01-21T20:02:22.058Z,4.00
2023-01-21T20:04:57.549Z,4.00
2023-01-21T20:07:25.406Z,4.00
2023-01-21T20:09:53.291Z,3.90
2023-01-21T20:12:21.160Z,3.80
2023-01-21T20:14:54.919Z,3.70
2023-01-21T20:17:24.147Z,3.70
2023-01-21T20:19:51.990Z,3.70
2023-01-21T20:22:23.081Z,3.70
2023-01-21T20:24:50.952Z,3.70
2023-01-21T20:27:19.079Z,3.60
2023-01-21T20:30:02.812Z,3.80
2023-01-21T20:32:36.984Z,3.80
2023-01-21T20:35:11.053Z,3.70
2023-01-21T20:37:40.758Z,3.50
2023-01-21T20:40:22.775Z,3.40
2023-01-21T20:42:51.915Z,3.60
2023-01-21T20:45:21.623Z,3.50
2023-01-21T20:48:10.483Z,3.60
2023-01-21T20:50:38.359Z,3.70
2023-01-21T20:53:06.299Z,3.70
2023-01-21T20:55:34.188Z,3.60
2023-01-21T20:58:02.042Z,3.50
2023-01-21T21:00:34.767Z,3.50
2023-01-21T21:03:21.902Z,3.60
2023-01-21T21:05:50.396Z,3.80
2023-01-21T21:08:20.056Z,3.60
2023-01-21T21:10:50.513Z,3.60
2023-01-21T21:13:24.285Z,3.60
2023-01-21T21:15:52.841Z,3.70
2023-01-21T21:18:22.051Z,3.70
2023-01-21T21:20:49.903Z,3.70
2023-01-21T21:23:20.572Z,3.70
2023-01-21T21:25:55.298Z,3.70
2023-01-21T21:28:23.148Z,3.70
2023-01-21T21:31:01.479Z,3.80
2023-01-21T21:33:30.816Z,3.70
2023-01-21T21:36:01.883Z,3.60
2023-01-21T21:38:29.711Z,3.50
2023-01-21T21:41:17.581Z,3.50
2023-01-21T21:43:44.463Z,3.50
2023-01-21T21:46:39.014Z,3.70
2023-01-21T21:49:10.729Z,3.60
2023-01-21T21:51:45.811Z,3.50
2023-01-21T21:54:18.193Z,3.40
2023-01-21T21:56:46.530Z,3.60
2023-01-21T21:59:15.219Z,3.90
2023-01-21T22:01:44.375Z,3.90
2023-01-21T22:04:16.189Z,3.80
2023-01-21T22:06:46.941Z,3.70
2023-01-21T22:09:14.817Z,3.90
2023-01-21T22:11:42.675Z,4.00
2023-01-21T22:14:10.547Z,4.00
2023-01-21T22:16:39.979Z,3.80
2023-01-21T22:19:12.118Z,3.70
2023-01-21T22:21:47.184Z,3.80
2023-01-21T22:24:21.295Z,3.70
2023-01-21T22:26:54.783Z,3.60
2023-01-21T22:29:26.305Z,3.70
2023-01-21T22:31:56.952Z,3.70
2023-01-21T22:34:27.626Z,3.60
2023-01-21T22:37:01.903Z,3.60
2023-01-21T22:39:37.405Z,3.60
2023-01-21T22:42:11.164Z,3.80
2023-01-21T22:44:45.218Z,3.70
2023-01-21T22:47:15.297Z,3.60
2023-01-21T22:49:49.148Z,3.70
2023-01-21T22:52:18.365Z,3.60
2023-01-21T22:54:47.579Z,3.40
2023-01-21T22:57:17.263Z,3.40
2023-01-21T22:59:47.923Z,3.40
2023-01-21T23:02:16.122Z,3.30
2023-01-21T23:04:44.093Z,3.30
2023-01-21T23:07:11.978Z,3.20
2023-01-21T23:09:41.196Z,3.20
2023-01-21T23:12:18.589Z,3.20
2023-01-21T23:14:46.808Z,3.20
2023-01-21T23:17:16.655Z,3.00
2023-01-21T23:19:47.611Z,3.00
2023-01-21T23:22:15.498Z,3.20
2023-01-21T23:24:55.183Z,3.40
2023-01-21T23:27:23.081Z,3.80
2023-01-21T23:29:53.817Z,3.90
2023-01-21T23:32:21.672Z,3.80
2023-01-21T23:34:56.738Z,3.70
2023-01-21T23:37:24.671Z,3.90
2023-01-21T23:39:53.903Z,3.70
2023-01-21T23:42:23.565Z,3.40
2023-01-21T23:44:51.511Z,3.50
2023-01-21T23:50:19.061Z,3.30
2023-01-21T23:52:49.671Z,3.10
2023-01-21T23:55:19.038Z,3.10
2023-01-21T23:57:49.099Z,3.00
